createdAt,value
2019-05-22T00:01:29.752Z,98134.73
2019-05-22T00:07:16.126Z,98138.67
2019-05-22T00:13:36.743Z,98146.02
2019-05-22T00:16:21.355Z,98141.67
2019-05-22T00:19:03.607Z,98147.33
2019-05-22T00:25:33.167Z,98148.22
2019-05-22T00:28:24.305Z,98148.69
2019-05-22T00:31:17.855Z,98149.10
2019-05-22T00:37:18.944Z,98152.16
2019-05-22T00:40:30.849Z,98154.98
2019-05-22T00:43:30.124Z,98156.85
2019-05-22T00:46:21.799Z,98154.78
2019-05-22T00:49:02.342Z,98157.14
2019-05-22T00:52:11.418Z,98154.78
2019-05-22T00:55:20.159Z,98152.28
2019-05-22T00:58:29.291Z,98157.98
2019-05-22T01:01:37.658Z,98155.11
2019-05-22T01:07:46.838Z,98158.40
2019-05-22T01:19:49.032Z,98029.55
2019-05-22T01:22:39.748Z,98164.57
2019-05-22T01:28:59.336Z,98162.42
2019-05-22T01:31:52.191Z,98157.64
2019-05-22T01:34:42.222Z,98151.08
2019-05-22T01:49:50.312Z,98154.90
2019-05-22T01:58:48.220Z,98158.89
2019-05-22T02:01:40.425Z,98156.01
2019-05-22T02:04:30.681Z,98160.61
2019-05-22T02:07:20.766Z,98161.66
2019-05-22T02:10:32.985Z,98162.23
2019-05-22T02:16:01.185Z,98152.95
2019-05-22T02:18:52.617Z,98157.84
2019-05-22T02:21:35.803Z,98152.22
2019-05-22T02:24:18.600Z,98050.83
2019-05-22T02:27:02.145Z,98023.08
2019-05-22T02:29:45.584Z,98159.23
2019-05-22T02:32:29.170Z,98165.70
2019-05-22T02:35:11.308Z,98160.00
2019-05-22T02:38:01.422Z,98161.31
2019-05-22T02:43:48.799Z,98170.10
2019-05-22T02:46:39.012Z,98168.06
2019-05-22T02:49:24.022Z,98166.75
2019-05-22T02:52:06.884Z,98169.72
2019-05-22T02:54:50.015Z,98170.10
2019-05-22T02:57:31.642Z,98169.38
2019-05-22T03:00:12.740Z,98178.55
2019-05-22T03:03:02.479Z,98187.52
2019-05-22T03:05:52.141Z,98179.66
2019-05-22T03:09:02.555Z,98191.72
2019-05-22T03:14:54.798Z,98187.34
2019-05-22T03:20:43.856Z,98181.38
2019-05-22T03:23:57.386Z,98188.19
2019-05-22T03:27:07.311Z,98190.43
2019-05-22T03:30:17.523Z,98188.57
2019-05-22T03:33:08.494Z,98186.70
2019-05-22T03:36:18.924Z,98191.47
2019-05-22T03:39:09.210Z,98193.63
2019-05-22T03:41:59.094Z,98195.98
2019-05-22T03:45:09.499Z,98196.34
2019-05-22T03:47:59.645Z,98199.72
2019-05-22T03:50:41.778Z,98198.61
2019-05-22T03:53:23.860Z,98198.23
2019-05-22T03:55:56.867Z,98201.38
2019-05-22T03:58:46.998Z,98201.30
2019-05-22T04:01:36.933Z,98199.98
2019-05-22T04:04:45.391Z,98202.22
2019-05-22T04:10:53.743Z,98204.78
2019-05-22T04:19:52.051Z,98208.91
2019-05-22T04:22:43.780Z,98216.31
2019-05-22T04:25:53.656Z,98222.74
2019-05-22T04:28:35.781Z,98226.13
2019-05-22T04:31:17.886Z,98219.00
2019-05-22T04:33:59.835Z,98223.58
2019-05-22T04:36:40.409Z,98229.20
2019-05-22T04:39:50.181Z,98225.27
2019-05-22T04:45:41.030Z,98096.83
2019-05-22T04:51:32.711Z,98233.93
2019-05-22T04:54:22.288Z,98237.39
2019-05-22T04:57:12.719Z,98244.22
2019-05-22T05:00:04.156Z,98243.63
2019-05-22T05:02:55.257Z,98243.84
2019-05-22T05:06:06.875Z,98251.16
2019-05-22T05:08:57.803Z,98251.88
2019-05-22T05:11:49.557Z,98252.99
2019-05-22T05:14:39.995Z,98261.01
2019-05-22T05:17:31.271Z,98251.56
2019-05-22T05:20:22.781Z,98254.66
2019-05-22T05:22:53.470Z,98259.34
2019-05-22T05:25:35.178Z,98263.61
2019-05-22T05:28:17.433Z,98260.26
2019-05-22T05:30:49.247Z,98263.45
2019-05-22T05:33:52.022Z,98272.51
2019-05-22T05:36:42.673Z,98266.25
2019-05-22T05:42:42.884Z,98269.19
2019-05-22T05:45:54.859Z,98274.59
2019-05-22T05:48:28.547Z,98147.97
2019-05-22T05:54:19.563Z,98269.84
2019-05-22T05:56:53.839Z,98275.98
2019-05-22T05:59:28.825Z,98281.50
2019-05-22T06:02:20.532Z,98280.31
2019-05-22T06:04:56.812Z,98286.34
2019-05-22T06:07:47.742Z,98288.97
2019-05-22T06:10:54.684Z,98286.14
2019-05-22T06:13:25.462Z,98284.88
2019-05-22T06:19:31.688Z,98287.03
2019-05-22T06:25:14.385Z,98293.56
2019-05-22T06:28:15.235Z,98294.23
2019-05-22T06:31:05.835Z,98299.08
2019-05-22T06:33:37.602Z,98294.55
2019-05-22T06:36:16.794Z,98298.38
2019-05-22T06:42:25.152Z,98307.33
2019-05-22T06:44:57.376Z,98311.84
2019-05-22T06:47:29.743Z,98314.52
2019-05-22T06:50:01.455Z,98313.58
2019-05-22T06:52:32.640Z,98311.09
2019-05-22T06:55:07.921Z,98321.48
2019-05-22T06:57:39.693Z,98323.34
2019-05-22T07:00:29.903Z,98324.11
2019-05-22T07:03:19.674Z,98319.03
2019-05-22T07:06:09.463Z,98326.70
2019-05-22T07:08:40.099Z,98247.16
2019-05-22T07:11:13.383Z,98327.97
2019-05-22T07:14:04.633Z,98324.75
2019-05-22T07:16:54.432Z,98331.15
2019-05-22T07:19:25.305Z,98331.95
2019-05-22T07:21:56.705Z,98328.05
2019-05-22T07:24:29.331Z,98328.05
2019-05-22T07:27:34.701Z,98330.05
2019-05-22T07:30:06.257Z,98338.41
2019-05-22T07:36:07.647Z,98340.14
2019-05-22T07:38:39.662Z,98347.45
2019-05-22T07:41:11.695Z,98342.44
2019-05-22T07:43:43.523Z,98335.42
2019-05-22T07:46:14.390Z,98333.67
2019-05-22T07:49:04.001Z,98337.99
2019-05-22T07:51:51.517Z,98200.67
2019-05-22T07:54:29.445Z,98338.07
2019-05-22T07:57:39.613Z,98341.03
2019-05-22T08:00:12.711Z,98337.03
2019-05-22T08:03:02.586Z,98343.03
2019-05-22T08:05:55.008Z,98342.34
2019-05-22T08:08:37.291Z,98343.70
2019-05-22T08:11:19.833Z,98337.03
2019-05-22T08:14:01.751Z,98272.02
2019-05-22T08:16:43.509Z,98351.83
2019-05-22T08:19:25.152Z,98357.94
2019-05-22T08:22:07.641Z,98358.91
2019-05-22T08:24:57.693Z,98364.27
2019-05-22T08:28:09.504Z,98362.11
2019-05-22T08:31:19.260Z,98256.14
2019-05-22T08:33:51.628Z,98368.36
2019-05-22T08:37:01.457Z,98370.78
2019-05-22T08:39:52.310Z,98368.63
2019-05-22T08:42:24.900Z,98366.12
2019-05-22T08:45:35.236Z,98371.61
2019-05-22T08:48:25.091Z,98371.32
2019-05-22T08:50:58.895Z,98370.55
2019-05-22T08:53:49.115Z,98372.38
2019-05-22T08:56:39.068Z,98377.48
2019-05-22T08:59:28.694Z,98376.45
2019-05-22T09:02:18.572Z,98386.54
2019-05-22T09:05:08.351Z,98379.44
2019-05-22T09:07:58.689Z,98378.91
2019-05-22T09:10:46.815Z,98374.16
2019-05-22T09:13:44.270Z,98380.86
2019-05-22T09:16:35.520Z,98379.30
2019-05-22T09:19:28.471Z,98378.07
2019-05-22T09:22:04.634Z,98383.13
2019-05-22T09:24:37.088Z,98385.25
2019-05-22T09:27:11.611Z,98394.86
2019-05-22T09:29:43.558Z,98380.91
2019-05-22T09:32:14.901Z,98386.47
2019-05-22T09:38:17.467Z,98386.84
2019-05-22T09:41:08.541Z,98269.63
2019-05-22T09:43:58.168Z,98390.62
2019-05-22T09:46:40.232Z,98392.34
2019-05-22T09:49:24.007Z,98395.69
2019-05-22T09:52:05.574Z,98397.76
2019-05-22T09:57:26.825Z,98394.47
2019-05-22T10:00:09.320Z,98408.25
2019-05-22T10:02:59.373Z,98403.50
2019-05-22T10:05:50.367Z,98407.69
2019-05-22T10:08:58.854Z,98402.89
2019-05-22T10:11:30.623Z,98413.44
2019-05-22T10:14:21.019Z,98413.06
2019-05-22T10:16:52.187Z,98413.45
2019-05-22T10:19:44.516Z,98413.58
2019-05-22T10:22:36.835Z,98406.75
2019-05-22T10:25:26.570Z,98407.34
2019-05-22T10:31:17.939Z,98405.06
2019-05-22T10:34:09.435Z,98406.38
2019-05-22T10:37:00.179Z,98414.19
2019-05-22T10:39:50.854Z,98409.86
2019-05-22T10:42:44.633Z,98408.67
2019-05-22T10:51:49.331Z,98423.09
2019-05-22T10:54:40.289Z,98415.88
2019-05-22T11:03:08.104Z,98420.84
2019-05-22T11:06:07.064Z,98413.38
2019-05-22T11:08:51.389Z,98415.27
2019-05-22T11:12:04.412Z,98415.61
2019-05-22T11:14:39.047Z,98425.10
2019-05-22T11:17:28.999Z,98424.00
2019-05-22T11:20:19.958Z,98416.55
2019-05-22T11:22:52.514Z,98344.48
2019-05-22T11:25:31.463Z,98409.69
2019-05-22T11:28:04.608Z,98421.53
2019-05-22T11:30:54.729Z,98416.98
2019-05-22T11:33:44.780Z,98410.63
2019-05-22T11:36:36.798Z,98415.27
2019-05-22T11:39:39.366Z,98414.90
2019-05-22T11:42:22.998Z,98304.70
2019-05-22T11:47:51.282Z,98419.38
2019-05-22T11:50:42.936Z,98417.61
2019-05-22T11:53:35.191Z,98424.39
2019-05-22T11:56:08.213Z,98411.05
2019-05-22T11:58:40.874Z,98421.20
2019-05-22T12:01:13.301Z,98423.59
2019-05-22T12:03:46.580Z,98421.78
2019-05-22T12:06:18.321Z,98423.37
2019-05-22T12:09:13.168Z,98422.42
2019-05-22T12:11:48.573Z,98432.00
2019-05-22T12:14:40.736Z,98433.43
2019-05-22T12:17:15.566Z,98427.27
2019-05-22T12:19:49.863Z,98428.97
2019-05-22T12:22:20.755Z,98436.73
2019-05-22T12:25:31.105Z,98432.61
2019-05-22T12:28:23.123Z,98320.48
2019-05-22T12:31:13.053Z,98425.93
2019-05-22T12:34:02.978Z,98425.17
2019-05-22T12:36:52.816Z,98425.64
2019-05-22T12:39:24.836Z,98304.14
2019-05-22T12:42:18.432Z,98424.78
2019-05-22T12:47:29.441Z,98441.55
2019-05-22T12:50:01.093Z,98434.66
2019-05-22T12:52:34.477Z,98435.27
2019-05-22T12:55:09.281Z,98434.33
2019-05-22T12:58:20.074Z,98435.48
2019-05-22T13:01:10.724Z,98434.80
2019-05-22T13:03:43.684Z,98437.52
2019-05-22T13:06:35.292Z,98430.71
2019-05-22T13:09:27.301Z,98432.81
2019-05-22T13:12:19.954Z,98432.73
2019-05-22T13:15:11.049Z,98420.80
2019-05-22T13:21:00.666Z,98443.95
2019-05-22T13:24:10.805Z,98447.53
2019-05-22T13:33:16.094Z,98442.25
2019-05-22T13:35:49.192Z,98437.33
2019-05-22T13:38:21.719Z,98430.20
2019-05-22T13:41:11.674Z,98439.84
2019-05-22T13:44:01.621Z,98439.50
2019-05-22T13:46:34.602Z,98436.48
2019-05-22T13:49:24.330Z,98446.77
2019-05-22T13:51:55.376Z,98440.27
2019-05-22T13:54:28.448Z,98435.75
2019-05-22T13:56:59.585Z,98422.22
2019-05-22T13:59:49.198Z,98427.32
2019-05-22T14:02:43.885Z,98417.83
2019-05-22T14:05:34.879Z,98420.92
2019-05-22T14:08:26.427Z,98432.16
2019-05-22T14:11:18.249Z,98423.97
2019-05-22T14:13:53.182Z,98420.12
2019-05-22T14:16:48.668Z,98419.62
2019-05-22T14:19:35.383Z,98409.25
2019-05-22T14:22:48.404Z,98418.16
2019-05-22T14:25:58.449Z,98424.72
2019-05-22T14:28:48.129Z,98414.31
2019-05-22T14:31:19.701Z,98415.27
2019-05-22T14:34:10.212Z,98412.05
2019-05-22T14:36:52.604Z,98409.64
2019-05-22T14:39:47.281Z,98410.68
2019-05-22T14:42:37.190Z,98410.33
2019-05-22T14:45:09.720Z,98415.91
2019-05-22T14:47:59.953Z,98412.38
2019-05-22T14:50:49.668Z,98417.03
2019-05-22T14:53:40.600Z,98416.67
2019-05-22T14:59:07.416Z,98411.03
2019-05-22T15:02:05.163Z,98431.25
2019-05-22T15:04:45.721Z,98419.25
2019-05-22T15:11:14.975Z,98409.15
2019-05-22T15:13:11.470Z,98406.28
2019-05-22T15:15:44.350Z,98417.70
2019-05-22T15:18:34.383Z,98408.95
2019-05-22T15:24:05.738Z,98394.16
2019-05-22T15:26:58.839Z,98400.22
2019-05-22T15:30:13.544Z,98400.00
2019-05-22T15:33:19.991Z,98407.95
2019-05-22T15:36:15.250Z,98330.93
2019-05-22T15:38:56.690Z,98403.47
2019-05-22T15:41:40.633Z,98410.22
2019-05-22T15:44:31.394Z,98407.75
2019-05-22T15:47:02.306Z,98399.75
2019-05-22T15:50:10.818Z,98407.26
2019-05-22T15:53:22.199Z,98398.77
2019-05-22T15:56:12.443Z,98393.37
2019-05-22T16:02:50.913Z,98394.41
2019-05-22T16:05:42.302Z,98385.83
2019-05-22T16:08:40.920Z,98394.58
2019-05-22T16:11:31.588Z,98394.22
2019-05-22T16:17:16.081Z,98384.98
2019-05-22T16:20:07.730Z,98394.48
2019-05-22T16:22:59.011Z,98390.20
2019-05-22T16:25:50.068Z,98383.95
2019-05-22T16:29:04.443Z,98387.84
2019-05-22T16:34:30.274Z,98387.85
2019-05-22T16:37:11.345Z,98387.81
2019-05-22T16:43:19.541Z,98394.38
2019-05-22T16:45:50.253Z,98396.94
2019-05-22T16:48:43.683Z,98389.20
2019-05-22T16:54:47.639Z,98389.89
2019-05-22T16:57:57.801Z,98387.85
2019-05-22T17:00:49.578Z,98390.05
2019-05-22T17:06:49.825Z,98386.83
2019-05-22T17:10:04.848Z,98385.92
2019-05-22T17:12:47.672Z,98389.71
2019-05-22T17:15:30.924Z,98386.00
2019-05-22T17:18:13.075Z,98387.38
2019-05-22T17:20:55.211Z,98386.36
2019-05-22T17:23:37.102Z,98389.00
2019-05-22T17:26:28.085Z,98386.86
2019-05-22T17:29:17.864Z,98382.34
2019-05-22T17:35:18.527Z,98383.22
2019-05-22T17:38:09.608Z,98388.77
2019-05-22T17:40:51.240Z,98389.53
2019-05-22T17:43:24.629Z,98385.97
2019-05-22T17:45:58.835Z,98388.11
2019-05-22T17:48:31.701Z,98393.52
2019-05-22T17:51:22.337Z,98398.61
2019-05-22T17:54:13.842Z,98394.39
2019-05-22T17:56:45.914Z,98392.23
2019-05-22T17:59:36.492Z,98398.72
2019-05-22T18:02:13.937Z,98396.53
2019-05-22T18:05:06.623Z,98396.36
2019-05-22T18:07:56.529Z,98400.74
2019-05-22T18:10:50.983Z,98403.16
2019-05-22T18:13:22.361Z,98404.14
2019-05-22T18:15:53.668Z,98403.88
2019-05-22T18:18:44.356Z,98407.22
2019-05-22T18:21:15.534Z,98405.66
2019-05-22T18:23:46.841Z,98410.57
2019-05-22T18:26:36.967Z,98409.73
2019-05-22T18:29:08.908Z,98410.89
2019-05-22T18:31:43.293Z,98414.00
2019-05-22T18:34:18.080Z,98414.76
2019-05-22T18:37:10.469Z,98416.67
2019-05-22T18:40:03.570Z,98419.38
2019-05-22T18:42:35.984Z,98424.09
2019-05-22T18:45:08.483Z,98420.98
2019-05-22T18:47:40.486Z,98420.24
2019-05-22T18:50:12.720Z,98423.84
2019-05-22T18:53:04.891Z,98426.66
2019-05-22T18:55:55.367Z,98425.28
2019-05-22T18:58:30.585Z,98431.05
2019-05-22T19:01:21.881Z,98433.84
2019-05-22T19:03:53.747Z,98433.60
2019-05-22T19:06:44.483Z,98433.69
2019-05-22T19:09:36.140Z,98434.33
2019-05-22T19:12:27.452Z,98438.11
2019-05-22T19:15:20.876Z,98437.81
2019-05-22T19:18:27.276Z,98440.23
2019-05-22T19:21:19.696Z,98439.46
2019-05-22T19:24:09.718Z,98441.73
2019-05-22T19:26:59.809Z,98443.40
2019-05-22T19:29:52.667Z,98443.38
2019-05-22T19:32:43.959Z,98445.27
2019-05-22T19:35:34.037Z,98444.48
2019-05-22T19:38:24.722Z,98455.99
2019-05-22T19:44:24.899Z,98462.63
2019-05-22T19:47:15.785Z,98466.42
2019-05-22T19:50:20.768Z,98468.33
2019-05-22T19:55:58.375Z,98475.30
2019-05-22T19:59:10.634Z,98476.04
2019-05-22T20:07:52.405Z,98480.19
2019-05-22T20:10:42.797Z,98483.18
2019-05-22T20:13:33.563Z,98480.92
2019-05-22T20:18:43.038Z,98489.14
2019-05-22T20:21:34.175Z,98486.99
2019-05-22T20:24:24.543Z,98486.41
2019-05-22T20:27:14.275Z,98486.88
2019-05-22T20:30:04.341Z,98487.23
2019-05-22T20:32:54.562Z,98492.08
2019-05-22T20:35:44.956Z,98497.67
2019-05-22T20:38:35.063Z,98499.51
2019-05-22T20:41:17.964Z,98350.91
2019-05-22T20:44:02.712Z,98493.27
2019-05-22T20:46:37.639Z,98451.82
2019-05-22T20:49:26.631Z,98489.45
2019-05-22T20:52:36.881Z,98494.86
2019-05-22T21:01:41.077Z,98498.18
2019-05-22T21:04:16.343Z,98498.69
2019-05-22T21:07:09.921Z,98491.85
2019-05-22T21:09:42.413Z,98494.17
2019-05-22T21:12:35.902Z,98488.07
2019-05-22T21:15:47.765Z,98494.31
2019-05-22T21:19:01.945Z,98493.98
2019-05-22T21:21:52.907Z,98499.55
2019-05-22T21:27:39.791Z,98494.22
2019-05-22T21:30:29.908Z,98501.15
2019-05-22T21:33:22.619Z,98440.78
2019-05-22T21:36:15.106Z,98492.95
2019-05-22T21:38:53.236Z,98497.13
2019-05-22T21:41:40.972Z,98491.51
2019-05-22T21:44:19.883Z,98492.78
2019-05-22T21:47:10.601Z,98483.69
2019-05-22T21:50:19.147Z,98487.55
2019-05-22T21:53:00.530Z,98483.10
2019-05-22T21:55:32.234Z,98354.96
2019-05-22T21:58:05.223Z,98485.05
2019-05-22T22:01:13.707Z,98482.14
2019-05-22T22:06:46.403Z,98482.05
2019-05-22T22:09:27.788Z,98489.36
2019-05-22T22:18:57.113Z,98485.45
2019-05-22T22:22:09.018Z,98483.94
2019-05-22T22:24:41.301Z,98482.94
2019-05-22T22:27:32.707Z,98484.95
2019-05-22T22:30:21.160Z,98483.86
2019-05-22T22:32:52.674Z,98484.86
2019-05-22T22:35:42.946Z,98488.23
2019-05-22T22:38:52.036Z,98487.53
2019-05-22T22:41:42.954Z,98490.69
2019-05-22T22:44:32.795Z,98494.05
2019-05-22T22:47:43.894Z,98496.52
2019-05-22T22:53:31.622Z,98485.06
2019-05-22T22:56:22.341Z,98490.28
2019-05-22T22:59:13.237Z,98484.45
2019-05-22T23:04:51.198Z,98486.11
2019-05-22T23:07:32.539Z,98493.14
2019-05-22T23:12:59.453Z,98498.59
2019-05-22T23:15:42.238Z,98500.44
2019-05-22T23:18:23.683Z,98503.39
2019-05-22T23:21:09.115Z,98497.47
2019-05-22T23:26:16.591Z,98499.09
2019-05-22T23:28:47.280Z,98496.15
2019-05-22T23:31:19.123Z,98505.19
2019-05-22T23:34:09.690Z,98498.42
2019-05-22T23:37:02.819Z,98499.55
2019-05-22T23:39:54.337Z,98503.75
2019-05-22T23:46:00.678Z,98506.44
2019-05-22T23:48:50.173Z,98497.83
2019-05-22T23:51:40.836Z,98495.84
2019-05-22T23:54:35.014Z,98493.43
